Friday, April 27, 2018, 2:32 AM EDT
Back to Local

KTHV, York Airport

Location: Spring Grove, PA, United States Lat: 39.917
Local Time: 2:32 AM EDT ( 6:32 GMT) Lon: -76.883
Time Zone: US/Eastern Elev: 478 ft

Show me the last for .
Show Decoded

2018-04-26 16:53 METAR KTHV 262053Z AUTO VRB05KT 10SM CLR 18/04 A2982 RMK AO2 SLP100 T01830044
                 58007 =
2018-04-26 15:53 METAR KTHV 261953Z AUTO 10SM CLR 18/06 A2982 RMK AO2 SLP101 T01830056 =
2018-04-26 14:53 METAR KTHV 261853Z AUTO 29009KT 10SM CLR 18/06 A2984 RMK AO2 SLP106 T01780056 =
2018-04-26 13:53 METAR KTHV 261753Z AUTO 29011KT 10SM CLR 17/06 A2984 RMK AO2 SLP107 T01670061
                 10167 20094 56006 =
2018-04-26 12:53 METAR KTHV 261653Z AUTO 31008KT 10SM CLR 16/06 A2985 RMK AO2 SLP108 T01560056 =
2018-04-26 11:53 METAR KTHV 261553Z AUTO VRB06KT 10SM SCT040 14/05 A2985 RMK AO2 SLP111 T01390050
                 =
2018-04-26 10:53 METAR KTHV 261453Z AUTO 30009KT 10SM CLR 13/04 A2986 RMK AO2 SLP114 T01330044
                 53013 =
2018-04-26 09:53 METAR KTHV 261353Z AUTO 32007KT 10SM CLR 12/04 A2984 RMK AO2 SLP108 T01220044 =
2018-04-26 08:53 METAR KTHV 261253Z AUTO 30007KT 10SM CLR 11/04 A2984 RMK AO2 SLP106 T01110039 =
2018-04-26 07:53 METAR KTHV 261153Z AUTO 28004KT 10SM CLR 09/04 A2982 RMK AO2 SLP101 T00940044
                 10106 20050 53013 =
2018-04-26 06:53 METAR KTHV 261053Z AUTO 00000KT 10SM CLR 06/03 A2981 RMK AO2 SLP098 T00610028 =
2018-04-26 05:53 METAR KTHV 260953Z AUTO 29007KT 10SM CLR 06/03 A2979 RMK AO2 SLP091 T00560028 =
2018-04-26 04:53 METAR KTHV 260853Z AUTO 00000KT 10SM CLR 06/03 A2978 RMK AO2 SLP088 T00610028
                 53015 =
2018-04-26 03:53 METAR KTHV 260753Z AUTO 26004KT 10SM CLR 07/03 A2977 RMK AO2 SLP083 T00720033 =
2018-04-26 02:53 METAR KTHV 260653Z AUTO 29009G19KT 10SM CLR 09/03 A2975 RMK AO2 SLP076 T00940033
                 =

Support USWX by starting your Amazon purchase here.